createdAt,value
2023-03-29T00:00:36.045Z,93.25
2023-03-29T00:01:36.606Z,93.15
2023-03-29T00:02:36.656Z,93.35
2023-03-29T00:03:36.096Z,93.56
2023-03-29T00:04:36.463Z,93.66
2023-03-29T00:05:36.594Z,93.46
2023-03-29T00:06:36.938Z,93.66
2023-03-29T00:07:36.310Z,93.35
2023-03-29T00:08:36.551Z,93.46
2023-03-29T00:09:35.911Z,93.56
2023-03-29T00:10:36.272Z,93.56
2023-03-29T00:11:36.528Z,93.66
2023-03-29T00:12:35.881Z,93.66
2023-03-29T00:13:36.206Z,93.46
2023-03-29T00:14:35.497Z,93.25
2023-03-29T00:15:35.807Z,93.15
2023-03-29T00:16:36.230Z,93.15
2023-03-29T00:17:35.466Z,93.00
2023-03-29T00:18:35.800Z,92.69
2023-03-29T00:19:36.130Z,92.69
2023-03-29T00:20:35.411Z,92.80
2023-03-29T00:21:35.740Z,92.74
2023-03-29T00:22:36.104Z,92.74
2023-03-29T00:23:35.319Z,92.49
2023-03-29T00:24:35.627Z,92.38
2023-03-29T00:25:35.934Z,92.28
2023-03-29T00:26:35.215Z,91.97
2023-03-29T00:27:35.281Z,91.86
2023-03-29T00:28:35.748Z,91.45
2023-03-29T00:29:36.216Z,91.24
2023-03-29T00:30:36.581Z,91.03
2023-03-29T00:31:36.061Z,90.93
2023-03-29T00:32:36.157Z,90.72
2023-03-29T00:33:35.544Z,90.58
2023-03-29T00:34:35.923Z,90.58
2023-03-29T00:35:35.204Z,90.37
2023-03-29T00:36:35.482Z,90.37
2023-03-29T00:37:35.802Z,90.37
2023-03-29T00:38:35.081Z,90.26
2023-03-29T00:39:35.448Z,90.06
2023-03-29T00:40:35.899Z,89.65
2023-03-29T00:41:35.059Z,89.75
2023-03-29T00:42:35.380Z,89.65
2023-03-29T00:43:35.711Z,89.44
2023-03-29T00:44:35.018Z,89.03
2023-03-29T00:45:35.350Z,89.13
2023-03-29T00:46:35.930Z,89.03
2023-03-29T00:47:35.012Z,89.09
2023-03-29T00:48:35.338Z,89.34
2023-03-29T00:49:35.680Z,89.13
2023-03-29T00:50:34.971Z,89.23
2023-03-29T00:51:35.289Z,89.03
2023-03-29T00:52:35.725Z,89.13
2023-03-29T00:53:34.903Z,88.92
2023-03-29T00:54:35.236Z,89.13
2023-03-29T00:55:35.608Z,89.34
2023-03-29T00:56:35.832Z,89.23
2023-03-29T00:57:35.206Z,89.23
2023-03-29T00:58:35.615Z,89.13
2023-03-29T00:59:34.848Z,88.82
2023-03-29T01:00:35.189Z,88.82
2023-03-29T01:01:35.543Z,88.51
2023-03-29T01:02:35.115Z,88.40
2023-03-29T01:03:35.226Z,88.40
2023-03-29T01:04:35.574Z,88.09
2023-03-29T01:05:34.775Z,87.88
2023-03-29T01:06:35.206Z,87.99
2023-03-29T01:07:35.435Z,87.95
2023-03-29T01:08:34.768Z,87.95
2023-03-29T01:09:35.069Z,88.30
2023-03-29T01:10:35.434Z,88.36
2023-03-29T01:11:35.651Z,87.74
2023-03-29T01:12:36.060Z,87.95
2023-03-29T01:13:36.328Z,88.06
2023-03-29T01:14:34.702Z,88.16
2023-03-29T01:15:35.017Z,87.74
2023-03-29T01:16:35.478Z,87.74
2023-03-29T01:17:34.689Z,87.74
2023-03-29T01:18:35.005Z,87.85
2023-03-29T01:19:35.322Z,87.54
2023-03-29T01:20:34.617Z,87.54
2023-03-29T01:21:35.906Z,87.74
2023-03-29T01:22:35.402Z,87.74
2023-03-29T01:23:34.573Z,88.06
2023-03-29T01:24:34.930Z,87.85
2023-03-29T01:25:35.210Z,87.12
2023-03-29T01:26:34.527Z,87.12
2023-03-29T01:27:34.864Z,86.91
2023-03-29T01:28:35.241Z,87.12
2023-03-29T01:29:34.503Z,87.33
2023-03-29T01:30:34.828Z,87.33
2023-03-29T01:31:35.219Z,87.33
2023-03-29T01:32:35.519Z,86.91
2023-03-29T01:33:35.748Z,86.71
2023-03-29T01:34:34.480Z,86.91
2023-03-29T01:35:34.778Z,86.91
2023-03-29T01:36:35.045Z,86.81
2023-03-29T01:37:34.347Z,86.71
2023-03-29T01:38:35.625Z,87.02
2023-03-29T01:39:35.012Z,87.02
2023-03-29T01:40:36.362Z,86.91
2023-03-29T01:41:34.608Z,87.12
2023-03-29T01:42:34.927Z,87.33
2023-03-29T01:43:34.224Z,87.23
2023-03-29T01:44:34.555Z,87.33
2023-03-29T01:45:34.888Z,87.02
2023-03-29T01:46:34.283Z,87.12
2023-03-29T01:47:34.497Z,87.23
2023-03-29T01:48:34.812Z,87.23
2023-03-29T01:49:34.124Z,87.12
2023-03-29T01:50:34.754Z,87.02
2023-03-29T01:51:34.734Z,86.91
2023-03-29T01:52:35.047Z,86.91
2023-03-29T01:53:34.336Z,87.02
2023-03-29T01:54:34.656Z,86.71
2023-03-29T01:55:35.021Z,86.50
2023-03-29T01:56:34.270Z,86.50
2023-03-29T01:57:34.601Z,86.60
2023-03-29T01:58:34.896Z,86.40
2023-03-29T01:59:35.241Z,86.60
2023-03-29T02:00:34.551Z,86.60
2023-03-29T02:01:34.913Z,86.40
2023-03-29T02:02:34.235Z,86.40
2023-03-29T02:03:34.466Z,86.29
2023-03-29T02:04:35.770Z,86.09
2023-03-29T02:05:35.004Z,86.29
2023-03-29T02:06:34.352Z,86.60
2023-03-29T02:07:34.740Z,86.09
2023-03-29T02:08:34.934Z,86.25
2023-03-29T02:09:35.291Z,85.63
2023-03-29T02:10:35.639Z,85.53
2023-03-29T02:11:34.922Z,85.63
2023-03-29T02:12:35.298Z,85.94
2023-03-29T02:13:34.682Z,86.05
2023-03-29T02:14:33.905Z,85.74
2023-03-29T02:15:34.275Z,85.11
2023-03-29T02:16:34.579Z,85.22
2023-03-29T02:17:33.912Z,85.42
2023-03-29T02:18:34.268Z,85.11
2023-03-29T02:19:34.582Z,85.02
2023-03-29T02:20:34.799Z,85.11
2023-03-29T02:21:35.149Z,85.02
2023-03-29T02:22:35.473Z,85.22
2023-03-29T02:23:33.794Z,85.11
2023-03-29T02:24:35.078Z,84.81
2023-03-29T02:25:34.552Z,84.66
2023-03-29T02:26:34.707Z,84.19
2023-03-29T02:27:35.010Z,84.05
2023-03-29T02:28:34.399Z,84.36
2023-03-29T02:29:33.669Z,84.56
2023-03-29T02:30:33.951Z,84.25
2023-03-29T02:31:34.355Z,84.15
2023-03-29T02:32:33.562Z,84.15
2023-03-29T02:33:34.809Z,84.15
2023-03-29T02:34:35.120Z,84.25
2023-03-29T02:35:35.457Z,83.94
2023-03-29T02:36:33.786Z,83.53
2023-03-29T02:37:34.212Z,83.53
2023-03-29T02:38:34.407Z,83.63
2023-03-29T02:39:33.740Z,83.11
2023-03-29T02:40:34.011Z,83.01
2023-03-29T02:41:34.463Z,83.01
2023-03-29T02:42:33.629Z,83.22
2023-03-29T02:43:33.939Z,83.22
2023-03-29T02:44:34.255Z,83.22
2023-03-29T02:45:34.497Z,83.63
2023-03-29T02:46:33.925Z,83.53
2023-03-29T02:47:34.299Z,83.32
2023-03-29T02:48:33.512Z,83.32
2023-03-29T02:49:33.856Z,82.90
2023-03-29T02:50:34.211Z,83.32
2023-03-29T02:51:33.456Z,83.11
2023-03-29T02:52:33.784Z,83.07
2023-03-29T02:53:34.143Z,83.28
2023-03-29T02:54:33.402Z,83.94
2023-03-29T02:55:33.743Z,83.90
2023-03-29T02:56:35.028Z,83.84
2023-03-29T02:57:34.340Z,83.42
2023-03-29T02:58:33.913Z,83.73
2023-03-29T02:59:34.034Z,84.05
2023-03-29T03:00:33.325Z,83.84
2023-03-29T03:01:33.680Z,83.63
2023-03-29T03:02:34.107Z,83.63
2023-03-29T03:03:33.395Z,83.18
2023-03-29T03:04:33.881Z,82.87
2023-03-29T03:05:33.938Z,82.66
2023-03-29T03:06:33.218Z,82.76
2023-03-29T03:07:33.542Z,82.76
2023-03-29T03:08:33.821Z,82.56
2023-03-29T03:09:33.121Z,82.04
2023-03-29T03:10:33.534Z,82.35
2023-03-29T03:11:33.832Z,82.66
2023-03-29T03:12:34.046Z,82.15
2023-03-29T03:13:34.379Z,82.15
2023-03-29T03:14:33.746Z,82.25
2023-03-29T03:15:33.044Z,82.42
2023-03-29T03:16:34.474Z,81.84
2023-03-29T03:17:33.691Z,82.31
2023-03-29T03:18:32.970Z,82.35
2023-03-29T03:19:34.262Z,82.04
2023-03-29T03:20:33.655Z,81.90
2023-03-29T03:21:32.910Z,81.70
2023-03-29T03:22:33.286Z,81.80
2023-03-29T03:23:34.516Z,81.59
2023-03-29T03:24:33.863Z,81.18
2023-03-29T03:25:33.421Z,81.07
2023-03-29T03:26:33.492Z,81.28
2023-03-29T03:27:34.802Z,81.49
2023-03-29T03:28:33.102Z,80.97
2023-03-29T03:29:33.428Z,81.07
2023-03-29T03:30:34.686Z,80.56
2023-03-29T03:31:33.099Z,80.76
2023-03-29T03:32:33.402Z,80.66
2023-03-29T03:33:33.788Z,80.87
2023-03-29T03:34:33.004Z,81.18
2023-03-29T03:35:33.350Z,81.28
2023-03-29T03:36:33.645Z,81.28
2023-03-29T03:37:32.929Z,80.66
2023-03-29T03:38:33.262Z,80.35
2023-03-29T03:39:33.601Z,80.87
2023-03-29T03:40:32.860Z,80.97
2023-03-29T03:41:33.157Z,80.56
2023-03-29T03:42:34.418Z,80.32
2023-03-29T03:43:32.759Z,80.52
2023-03-29T03:44:33.067Z,80.62
2023-03-29T03:45:33.462Z,79.59
2023-03-29T03:46:33.648Z,79.08
2023-03-29T03:47:34.038Z,78.97
2023-03-29T03:48:34.335Z,79.49
2023-03-29T03:49:33.621Z,79.69
2023-03-29T03:50:33.924Z,79.38
2023-03-29T03:51:33.382Z,79.59
2023-03-29T03:52:32.638Z,80.32
2023-03-29T03:53:32.906Z,80.21
2023-03-29T03:54:34.192Z,80.42
2023-03-29T03:55:32.486Z,80.62
2023-03-29T03:56:33.768Z,80.21
2023-03-29T03:57:33.194Z,80.83
2023-03-29T03:58:34.394Z,80.52
2023-03-29T03:59:32.709Z,80.73
2023-03-29T04:00:33.027Z,80.83
2023-03-29T04:01:34.331Z,80.73
2023-03-29T04:02:32.667Z,80.87
2023-03-29T04:03:33.024Z,80.42
2023-03-29T04:04:33.295Z,80.21
2023-03-29T04:05:33.471Z,80.42
2023-03-29T04:06:33.781Z,79.80
2023-03-29T04:07:33.135Z,79.49
2023-03-29T04:08:33.381Z,79.80
2023-03-29T04:09:32.778Z,79.69
2023-03-29T04:10:33.030Z,79.69
2023-03-29T04:11:32.299Z,79.90
2023-03-29T04:12:32.589Z,80.32
2023-03-29T04:13:33.863Z,80.42
2023-03-29T04:14:33.226Z,80.42
2023-03-29T04:15:32.561Z,80.32
2023-03-29T04:16:32.812Z,79.90
2023-03-29T04:17:33.188Z,79.28
2023-03-29T04:18:32.510Z,79.49
2023-03-29T04:19:32.777Z,79.90
2023-03-29T04:20:33.123Z,79.90
2023-03-29T04:21:32.376Z,79.69
2023-03-29T04:22:32.722Z,79.49
2023-03-29T04:23:34.007Z,79.59
2023-03-29T04:24:32.312Z,79.90
2023-03-29T04:25:32.666Z,80.00
2023-03-29T04:26:33.905Z,80.62
2023-03-29T04:27:33.222Z,80.93
2023-03-29T04:28:32.569Z,80.83
2023-03-29T04:29:32.882Z,80.83
2023-03-29T04:30:32.176Z,81.45
2023-03-29T04:31:32.775Z,82.75
2023-03-29T04:32:32.843Z,83.06
2023-03-29T04:33:33.099Z,83.17
2023-03-29T04:34:33.375Z,82.86
2023-03-29T04:35:33.773Z,82.65
2023-03-29T04:36:32.029Z,82.86
2023-03-29T04:37:32.459Z,82.55
2023-03-29T04:38:32.654Z,82.03
2023-03-29T04:39:32.946Z,82.14
2023-03-29T04:40:32.246Z,82.24
2023-03-29T04:41:32.540Z,82.45
2023-03-29T04:42:32.906Z,82.75
2023-03-29T04:43:32.124Z,83.17
2023-03-29T04:44:33.454Z,83.37
2023-03-29T04:45:32.771Z,83.48
2023-03-29T04:46:33.074Z,83.48
2023-03-29T04:47:32.336Z,83.62
2023-03-29T04:48:32.667Z,83.93
2023-03-29T04:49:32.860Z,84.23
2023-03-29T04:50:33.138Z,84.44
2023-03-29T04:51:33.471Z,84.55
2023-03-29T04:52:31.768Z,84.75
2023-03-29T04:53:32.097Z,84.96
2023-03-29T04:54:32.454Z,84.86
2023-03-29T04:55:33.689Z,84.89
2023-03-29T04:56:32.954Z,84.69
2023-03-29T04:57:33.258Z,84.28
2023-03-29T04:58:32.944Z,84.59
2023-03-29T04:59:32.860Z,85.00
2023-03-29T05:00:32.478Z,85.10
2023-03-29T05:01:32.574Z,85.10
2023-03-29T05:02:31.861Z,85.31
2023-03-29T05:03:33.130Z,85.41
2023-03-29T05:04:33.472Z,85.41
2023-03-29T05:05:31.770Z,85.41
2023-03-29T05:06:32.106Z,85.52
2023-03-29T05:07:32.478Z,85.62
2023-03-29T05:08:31.658Z,85.62
2023-03-29T05:09:34.318Z,85.41
2023-03-29T05:10:32.309Z,84.79
2023-03-29T05:11:31.566Z,84.48
2023-03-29T05:12:32.002Z,84.59
2023-03-29T05:13:32.168Z,84.79
2023-03-29T05:14:32.485Z,84.69
2023-03-29T05:15:31.785Z,84.69
2023-03-29T05:16:32.102Z,84.79
2023-03-29T05:17:32.396Z,84.89
2023-03-29T05:18:31.623Z,84.89
2023-03-29T05:19:32.015Z,84.89
2023-03-29T05:20:32.261Z,84.79
2023-03-29T05:21:31.518Z,84.79
2023-03-29T05:22:31.871Z,85.00
2023-03-29T05:23:32.138Z,85.21
2023-03-29T05:24:32.335Z,85.31
2023-03-29T05:25:31.776Z,85.41
2023-03-29T05:26:32.016Z,85.52
2023-03-29T05:27:32.296Z,85.52
2023-03-29T05:28:31.583Z,85.31
2023-03-29T05:29:31.925Z,85.41
2023-03-29T05:30:32.349Z,85.52
2023-03-29T05:31:31.573Z,85.41
2023-03-29T05:32:31.921Z,85.41
2023-03-29T05:33:32.286Z,85.21
2023-03-29T05:34:32.469Z,85.41
2023-03-29T05:35:31.869Z,85.41
2023-03-29T05:36:32.186Z,85.31
2023-03-29T05:37:31.490Z,85.10
2023-03-29T05:38:32.721Z,85.21
2023-03-29T05:39:32.060Z,85.31
2023-03-29T05:40:32.331Z,85.31
2023-03-29T05:41:32.637Z,85.41
2023-03-29T05:42:32.919Z,85.52
2023-03-29T05:43:31.233Z,85.52
2023-03-29T05:44:31.601Z,85.52
2023-03-29T05:45:31.886Z,85.31
2023-03-29T05:46:31.219Z,85.41
2023-03-29T05:47:31.531Z,85.52
2023-03-29T05:48:31.806Z,85.62
2023-03-29T05:49:31.100Z,85.83
2023-03-29T05:50:31.427Z,85.93
2023-03-29T05:51:31.765Z,86.03
2023-03-29T05:52:31.049Z,86.03
2023-03-29T05:53:31.463Z,86.13
2023-03-29T05:54:32.718Z,86.13
2023-03-29T05:55:31.964Z,86.34
2023-03-29T05:56:32.313Z,86.44
2023-03-29T05:57:31.658Z,86.44
2023-03-29T05:58:30.986Z,86.55
2023-03-29T05:59:31.733Z,86.76
2023-03-29T06:00:32.599Z,86.76
2023-03-29T06:01:31.910Z,86.86
2023-03-29T06:02:32.330Z,86.86
2023-03-29T06:03:32.709Z,86.65
2023-03-29T06:04:31.939Z,86.34
2023-03-29T06:05:32.438Z,86.34
2023-03-29T06:06:31.544Z,86.24
2023-03-29T06:07:30.814Z,86.34
2023-03-29T06:08:31.136Z,86.44
2023-03-29T06:09:32.459Z,86.24
2023-03-29T06:10:30.765Z,86.34
2023-03-29T06:11:31.241Z,86.34
2023-03-29T06:12:32.385Z,86.13
2023-03-29T06:13:30.742Z,85.93
2023-03-29T06:14:31.058Z,85.83
2023-03-29T06:15:31.362Z,85.83
2023-03-29T06:16:31.788Z,85.83
2023-03-29T06:17:31.012Z,86.03
2023-03-29T06:18:32.272Z,85.58
2023-03-29T06:19:31.552Z,85.58
2023-03-29T06:20:31.804Z,85.78
2023-03-29T06:21:31.166Z,85.89
2023-03-29T06:22:32.187Z,86.10
2023-03-29T06:23:30.761Z,86.10
2023-03-29T06:24:31.070Z,86.20
2023-03-29T06:25:31.396Z,86.10
2023-03-29T06:26:31.641Z,86.10
2023-03-29T06:27:31.979Z,86.10
2023-03-29T06:28:32.306Z,85.99
2023-03-29T06:29:30.592Z,85.58
2023-03-29T06:30:30.982Z,85.89
2023-03-29T06:31:32.207Z,85.68
2023-03-29T06:32:30.533Z,85.78
2023-03-29T06:33:30.888Z,85.89
2023-03-29T06:34:32.125Z,85.78
2023-03-29T06:35:31.417Z,85.78
2023-03-29T06:36:30.777Z,85.89
2023-03-29T06:37:32.028Z,85.89
2023-03-29T06:38:30.344Z,85.89
2023-03-29T06:39:30.678Z,85.89
2023-03-29T06:40:31.107Z,85.58
2023-03-29T06:41:31.328Z,85.37
2023-03-29T06:42:30.643Z,85.47
2023-03-29T06:43:30.903Z,85.68
2023-03-29T06:44:32.173Z,85.68
2023-03-29T06:45:31.453Z,85.64
2023-03-29T06:46:30.907Z,85.54
2023-03-29T06:47:32.097Z,85.54
2023-03-29T06:48:30.412Z,85.85
2023-03-29T06:49:30.728Z,85.85
2023-03-29T06:50:32.032Z,85.54
2023-03-29T06:51:30.274Z,85.54
2023-03-29T06:52:31.632Z,85.44
2023-03-29T06:53:30.948Z,85.33
2023-03-29T06:54:31.359Z,84.92
2023-03-29T06:55:30.440Z,84.81
2023-03-29T06:56:31.732Z,84.88
2023-03-29T06:57:31.026Z,85.19
2023-03-29T06:58:30.294Z,85.50
2023-03-29T06:59:31.532Z,85.30
2023-03-29T07:00:30.872Z,85.19
2023-03-29T07:01:31.185Z,84.67
2023-03-29T07:02:31.428Z,84.67
2023-03-29T07:03:31.715Z,84.88
2023-03-29T07:04:31.111Z,84.84
2023-03-29T07:05:30.282Z,84.84
2023-03-29T07:06:31.547Z,84.74
2023-03-29T07:07:31.827Z,85.36
2023-03-29T07:08:30.119Z,85.25
2023-03-29T07:09:30.537Z,85.36
2023-03-29T07:10:31.689Z,84.94
2023-03-29T07:11:30.950Z,84.70
2023-03-29T07:12:30.264Z,84.70
2023-03-29T07:13:30.577Z,84.70
2023-03-29T07:14:30.972Z,84.59
2023-03-29T07:15:30.158Z,84.49
2023-03-29T07:16:30.388Z,84.70
2023-03-29T07:17:31.690Z,84.70
2023-03-29T07:18:29.926Z,84.49
2023-03-29T07:19:30.359Z,84.49
2023-03-29T07:20:30.562Z,84.19
2023-03-29T07:21:30.855Z,83.87
2023-03-29T07:22:30.133Z,83.98
2023-03-29T07:23:31.406Z,84.19
2023-03-29T07:24:30.778Z,84.39
2023-03-29T07:25:30.965Z,83.77
2023-03-29T07:26:30.472Z,83.98
2023-03-29T07:27:31.586Z,84.19
2023-03-29T07:28:29.927Z,83.98
2023-03-29T07:29:31.220Z,83.67
2023-03-29T07:30:32.138Z,83.67
2023-03-29T07:31:29.864Z,83.67
2023-03-29T07:32:30.374Z,83.77
2023-03-29T07:33:31.513Z,83.98
2023-03-29T07:34:29.732Z,83.53
2023-03-29T07:35:30.047Z,83.84
2023-03-29T07:36:31.326Z,83.73
2023-03-29T07:37:29.652Z,83.94
2023-03-29T07:38:30.060Z,84.25
2023-03-29T07:39:30.268Z,84.45
2023-03-29T07:40:30.608Z,84.45
2023-03-29T07:41:30.800Z,84.56
2023-03-29T07:42:31.127Z,84.35
2023-03-29T07:43:30.529Z,84.56
2023-03-29T07:44:29.763Z,84.45
2023-03-29T07:45:31.073Z,84.45
2023-03-29T07:46:31.332Z,84.35
2023-03-29T07:47:30.706Z,84.21
2023-03-29T07:48:29.973Z,84.11
2023-03-29T07:49:31.338Z,84.00
2023-03-29T07:50:29.597Z,84.21
2023-03-29T07:51:30.836Z,84.42
2023-03-29T07:52:30.189Z,84.31
2023-03-29T07:53:29.468Z,84.42
2023-03-29T07:54:30.734Z,84.42
2023-03-29T07:55:30.204Z,84.42
2023-03-29T07:56:30.378Z,84.11
2023-03-29T07:57:30.643Z,83.97
2023-03-29T07:58:31.046Z,83.97
2023-03-29T07:59:30.298Z,83.86
2023-03-29T08:00:29.570Z,84.07
2023-03-29T08:01:29.896Z,84.07
2023-03-29T08:02:30.195Z,84.07
2023-03-29T08:03:30.419Z,83.97
2023-03-29T08:04:30.785Z,83.72
2023-03-29T08:05:40.693Z,83.62
2023-03-29T08:06:30.291Z,83.83
2023-03-29T08:07:30.623Z,84.03
2023-03-29T08:08:29.968Z,84.13
2023-03-29T08:09:30.132Z,83.92
2023-03-29T08:10:30.466Z,83.68
2023-03-29T08:11:30.802Z,83.68
2023-03-29T08:12:31.352Z,83.68
2023-03-29T08:13:30.364Z,83.68
2023-03-29T08:14:30.611Z,83.58
2023-03-29T08:15:29.930Z,83.37
2023-03-29T08:16:29.251Z,83.37
2023-03-29T08:17:29.570Z,83.37
2023-03-29T08:18:31.603Z,83.27
2023-03-29T08:19:30.088Z,83.13
2023-03-29T08:20:30.283Z,83.13
2023-03-29T08:21:30.577Z,83.23
2023-03-29T08:22:30.014Z,84.05
2023-03-29T08:23:29.213Z,83.95
2023-03-29T08:24:30.528Z,84.22
2023-03-29T08:25:30.719Z,83.70
2023-03-29T08:26:29.037Z,83.40
2023-03-29T08:27:30.308Z,83.15
2023-03-29T08:28:29.626Z,81.20
2023-03-29T08:29:30.892Z,81.06
2023-03-29T08:30:30.193Z,82.70
2023-03-29T08:31:29.476Z,82.19
2023-03-29T08:32:29.801Z,80.72
2023-03-29T08:33:29.905Z,80.31
2023-03-29T08:34:30.170Z,80.31
2023-03-29T08:35:29.674Z,79.28
2023-03-29T08:36:29.762Z,79.59
2023-03-29T08:37:29.972Z,78.97
2023-03-29T08:38:29.298Z,79.38
2023-03-29T08:39:29.557Z,78.94
2023-03-29T08:40:29.785Z,78.53
2023-03-29T08:41:29.128Z,78.32
2023-03-29T08:42:29.338Z,79.55
2023-03-29T08:43:29.612Z,80.27
2023-03-29T08:44:28.831Z,79.24
2023-03-29T08:45:30.086Z,78.80
2023-03-29T08:46:35.171Z,77.98
2023-03-29T08:47:29.677Z,79.82
2023-03-29T08:48:29.928Z,78.28
2023-03-29T08:49:29.220Z,77.77
2023-03-29T08:50:29.522Z,79.00
2023-03-29T08:51:29.668Z,79.82
2023-03-29T08:52:30.602Z,79.93
2023-03-29T08:53:29.226Z,79.00
2023-03-29T08:54:30.538Z,78.70
2023-03-29T08:55:28.749Z,77.47
2023-03-29T08:56:30.283Z,77.98
2023-03-29T08:57:29.355Z,79.31
2023-03-29T08:58:29.522Z,79.11
2023-03-29T08:59:29.771Z,79.11
2023-03-29T09:00:29.091Z,79.27
2023-03-29T09:01:30.387Z,80.40
2023-03-29T09:02:28.708Z,79.41
2023-03-29T09:03:29.096Z,78.97
2023-03-29T09:04:29.160Z,79.38
2023-03-29T09:05:30.408Z,78.76
2023-03-29T09:06:28.636Z,79.27
2023-03-29T09:07:28.911Z,79.38
2023-03-29T09:08:30.152Z,79.58
2023-03-29T09:09:29.367Z,79.58
2023-03-29T09:10:29.696Z,79.52
2023-03-29T09:11:28.972Z,78.90
2023-03-29T09:12:30.171Z,79.31
2023-03-29T09:13:29.466Z,79.31
2023-03-29T09:14:28.707Z,78.49
2023-03-29T09:15:29.955Z,78.70
2023-03-29T09:16:29.271Z,79.72
2023-03-29T09:17:29.475Z,79.79
2023-03-29T09:18:29.777Z,79.48
2023-03-29T09:19:29.115Z,79.68
2023-03-29T09:20:29.200Z,79.58
2023-03-29T09:21:29.480Z,79.17
2023-03-29T09:22:29.769Z,78.86
2023-03-29T09:23:30.095Z,78.86
2023-03-29T09:24:28.342Z,78.86
2023-03-29T09:25:29.521Z,78.97
2023-03-29T09:26:29.747Z,78.15
2023-03-29T09:27:30.070Z,78.28
2023-03-29T09:28:29.251Z,78.49
2023-03-29T09:29:28.581Z,78.80
2023-03-29T09:30:29.765Z,78.28
2023-03-29T09:31:30.102Z,78.39
2023-03-29T09:32:28.306Z,79.21
2023-03-29T09:33:28.684Z,79.31
2023-03-29T09:34:28.919Z,79.62
2023-03-29T09:35:29.176Z,79.11
2023-03-29T09:36:28.304Z,79.11
2023-03-29T09:37:28.560Z,79.11
2023-03-29T09:38:28.826Z,79.11
2023-03-29T09:39:30.081Z,79.52
2023-03-29T09:40:29.308Z,79.72
2023-03-29T09:41:29.607Z,80.13
2023-03-29T09:42:28.926Z,80.03
2023-03-29T09:43:28.098Z,79.68
2023-03-29T09:44:31.181Z,79.58
2023-03-29T09:45:28.673Z,79.99
2023-03-29T09:46:29.008Z,79.89
2023-03-29T09:47:29.062Z,79.17
2023-03-29T09:48:28.416Z,79.17
2023-03-29T09:49:29.666Z,79.68
2023-03-29T09:50:31.634Z,79.17
2023-03-29T09:51:29.101Z,79.17
2023-03-29T09:52:28.436Z,79.79
2023-03-29T09:53:28.754Z,80.05
2023-03-29T09:54:28.178Z,79.85
2023-03-29T09:55:29.259Z,79.75
2023-03-29T09:56:28.511Z,79.13
2023-03-29T09:57:29.804Z,79.64
2023-03-29T09:58:27.986Z,79.75
2023-03-29T09:59:29.280Z,79.75
2023-03-29T10:00:29.569Z,79.64
2023-03-29T10:01:27.750Z,79.27
2023-03-29T10:02:28.001Z,79.07
2023-03-29T10:03:28.220Z,79.38
2023-03-29T10:04:29.420Z,79.58
2023-03-29T10:05:27.663Z,79.48
2023-03-29T10:06:27.974Z,79.24
2023-03-29T10:07:28.317Z,79.44
2023-03-29T10:08:28.410Z,79.75
2023-03-29T10:09:27.646Z,79.85
2023-03-29T10:10:27.918Z,79.85
2023-03-29T10:11:28.160Z,79.85
2023-03-29T10:12:28.391Z,79.44
2023-03-29T10:13:27.625Z,79.61
2023-03-29T10:14:28.845Z,79.20
2023-03-29T10:15:30.039Z,78.89
2023-03-29T10:16:28.476Z,79.30
2023-03-29T10:17:27.682Z,79.61
2023-03-29T10:18:27.827Z,79.61
2023-03-29T10:19:28.103Z,79.10
2023-03-29T10:20:29.260Z,78.89
2023-03-29T10:21:27.516Z,78.96
2023-03-29T10:22:27.838Z,79.57
2023-03-29T10:23:28.096Z,79.37
2023-03-29T10:24:28.308Z,78.96
2023-03-29T10:25:27.531Z,78.86
2023-03-29T10:26:27.920Z,78.86
2023-03-29T10:27:28.078Z,78.55
2023-03-29T10:28:28.312Z,78.45
2023-03-29T10:29:27.630Z,78.65
2023-03-29T10:30:27.797Z,79.06
2023-03-29T10:31:28.149Z,78.45
2023-03-29T10:32:27.347Z,78.14
2023-03-29T10:33:27.571Z,78.86
2023-03-29T10:34:27.810Z,78.96
2023-03-29T10:35:28.130Z,79.16
2023-03-29T10:36:27.292Z,79.37
2023-03-29T10:37:27.587Z,79.88
2023-03-29T10:38:27.811Z,79.37
2023-03-29T10:39:28.062Z,79.16
2023-03-29T10:40:27.275Z,79.68
2023-03-29T10:41:27.532Z,79.68
2023-03-29T10:42:27.826Z,79.37
2023-03-29T10:43:28.046Z,79.16
2023-03-29T10:44:27.597Z,79.43
2023-03-29T10:45:27.566Z,78.61
2023-03-29T10:46:27.926Z,78.52
2023-03-29T10:47:28.069Z,78.92
2023-03-29T10:48:27.326Z,78.92
2023-03-29T10:49:27.526Z,78.52
2023-03-29T10:50:27.809Z,78.27
2023-03-29T10:51:28.089Z,77.97
2023-03-29T10:52:27.280Z,78.48
2023-03-29T10:53:27.492Z,78.48
2023-03-29T10:54:27.778Z,78.64
2023-03-29T10:55:28.033Z,78.54
2023-03-29T10:56:27.241Z,78.34
2023-03-29T10:57:27.508Z,78.13
2023-03-29T10:58:27.713Z,77.93
2023-03-29T10:59:27.960Z,77.79
2023-03-29T11:00:27.159Z,77.48
2023-03-29T11:01:27.586Z,76.97
2023-03-29T11:02:27.731Z,77.28
2023-03-29T11:03:28.061Z,77.34
2023-03-29T11:04:27.160Z,77.45
2023-03-29T11:05:29.436Z,77.96
2023-03-29T11:06:27.599Z,78.12
2023-03-29T11:07:27.928Z,78.53
2023-03-29T11:08:28.484Z,78.12
2023-03-29T11:09:27.264Z,76.50
2023-03-29T11:10:27.525Z,76.15
2023-03-29T11:11:27.725Z,76.05
2023-03-29T11:12:26.986Z,77.27
2023-03-29T11:13:27.184Z,77.27
2023-03-29T11:14:27.452Z,76.35
2023-03-29T11:15:27.637Z,76.05
2023-03-29T11:16:26.875Z,74.01
2023-03-29T11:17:27.079Z,73.88
2023-03-29T11:18:27.279Z,73.26
2023-03-29T11:19:27.495Z,74.69
2023-03-29T11:20:28.677Z,74.38
2023-03-29T11:21:26.874Z,74.99
2023-03-29T11:22:28.025Z,74.90
2023-03-29T11:23:27.432Z,74.69
2023-03-29T11:24:27.509Z,75.51
2023-03-29T11:25:29.132Z,74.99
2023-03-29T11:26:26.890Z,74.28
2023-03-29T11:27:27.110Z,75.81
2023-03-29T11:28:27.340Z,74.58
2023-03-29T11:29:27.599Z,74.45
2023-03-29T11:30:26.717Z,73.84
2023-03-29T11:31:27.976Z,75.16
2023-03-29T11:32:28.164Z,73.74
2023-03-29T11:33:27.433Z,74.45
2023-03-29T11:34:26.609Z,74.96
2023-03-29T11:35:26.950Z,73.91
2023-03-29T11:36:27.130Z,71.87
2023-03-29T11:37:28.245Z,72.58
2023-03-29T11:38:26.482Z,73.91
2023-03-29T11:39:26.694Z,74.11
2023-03-29T11:40:26.920Z,73.60
2023-03-29T11:41:27.237Z,72.99
2023-03-29T11:42:27.394Z,74.32
2023-03-29T11:43:26.525Z,73.16
2023-03-29T11:44:26.889Z,73.36
2023-03-29T11:45:27.148Z,73.06
2023-03-29T11:46:27.320Z,72.01
2023-03-29T11:47:26.491Z,72.82
2023-03-29T11:48:26.663Z,72.92
2023-03-29T11:49:26.854Z,71.77
2023-03-29T11:50:27.108Z,71.77
2023-03-29T11:51:26.314Z,70.75
2023-03-29T11:52:26.552Z,71.26
2023-03-29T11:53:26.848Z,70.55
2023-03-29T11:54:26.960Z,70.72
2023-03-29T11:55:27.168Z,69.64
2023-03-29T11:56:26.362Z,70.14
2023-03-29T11:57:26.656Z,71.67
2023-03-29T11:58:26.774Z,70.82
2023-03-29T11:59:27.989Z,70.42
2023-03-29T12:00:26.223Z,71.16
2023-03-29T12:01:26.437Z,70.65
2023-03-29T12:02:26.718Z,69.64
2023-03-29T12:03:27.019Z,71.06
2023-03-29T12:04:27.106Z,70.86
2023-03-29T12:05:26.269Z,69.02
2023-03-29T12:06:27.402Z,68.92
2023-03-29T12:07:26.793Z,68.41
2023-03-29T12:08:27.846Z,71.03
2023-03-29T12:09:26.081Z,69.91
2023-03-29T12:10:26.334Z,69.17
2023-03-29T12:11:26.433Z,70.48
2023-03-29T12:12:27.587Z,70.35
2023-03-29T12:13:26.811Z,68.22
2023-03-29T12:14:27.887Z,68.62
2023-03-29T12:15:26.166Z,68.32
2023-03-29T12:16:27.338Z,67.91
2023-03-29T12:17:27.505Z,68.35
2023-03-29T12:18:26.721Z,68.86
2023-03-29T12:19:27.897Z,68.55
2023-03-29T12:20:26.118Z,69.98
2023-03-29T12:21:26.795Z,69.54
2023-03-29T12:22:26.477Z,69.13
2023-03-29T12:23:26.671Z,70.32
2023-03-29T12:24:25.864Z,67.78
2023-03-29T12:25:27.095Z,67.75
2023-03-29T12:26:26.257Z,68.73
2023-03-29T12:27:26.574Z,67.92
2023-03-29T12:28:26.696Z,68.23
2023-03-29T12:29:25.859Z,67.72
2023-03-29T12:30:26.091Z,67.82
2023-03-29T12:31:26.331Z,67.51
2023-03-29T12:32:26.589Z,67.95
2023-03-29T12:33:26.777Z,68.15
2023-03-29T12:34:25.909Z,67.24
2023-03-29T12:35:27.103Z,67.65
2023-03-29T12:36:27.258Z,68.05
2023-03-29T12:37:26.533Z,68.96
2023-03-29T12:38:26.348Z,67.58
2023-03-29T12:39:25.953Z,69.07
2023-03-29T12:40:26.148Z,68.59
2023-03-29T12:41:26.373Z,69.47
2023-03-29T12:42:26.573Z,70.48
2023-03-29T12:43:26.771Z,69.47
2023-03-29T12:44:26.002Z,69.68
2023-03-29T12:45:26.215Z,69.64
2023-03-29T12:46:26.676Z,67.61
2023-03-29T12:47:25.587Z,67.92
2023-03-29T12:48:25.823Z,67.92
2023-03-29T12:49:25.996Z,68.23
2023-03-29T12:50:26.217Z,68.23
2023-03-29T12:51:26.357Z,68.23
2023-03-29T12:52:25.584Z,68.60